Terminal Aerodrome Forecast
Issued by NWS Denver/Boulder, CO

Home | Current Version | Previous Version | Text Only | Print | Product List | Glossary On
Versions: 1 2 3 4 5 6 7 8 9 10 11 12 13 14 15 16 17 18 19 20 21 22 23 24 25 26 27 28 29 30 31 32 33 34 35 36 37 38 39 40 41 42 43 44 45 46 47 48 49 50
000
FTUS45 KBOU 220354 AAC
TAFDEN
TAF AMD
KDEN 220354Z 2204/2306 08011KT 3SM -RA BR SCT006 BKN012 OVC060
      TEMPO 2204/2205 1SM -RA BR BKN006
     FM220500 11011KT P6SM VCSH BKN008 OVC040
     FM220700 15004KT P6SM VCSH SCT008 OVC035
     FM221800 03004KT P6SM SCT040 BKN060
     FM230100 09006KT P6SM SCT060 SCT150
     FM230300 13006KT P6SM SCT150
     FM230500 18012KT P6SM SKC=

USA.gov is the U.S. government's official web portal to all federal, state and local government web resources and services.